createdAt,value
2022-11-06T00:01:44.874Z,93975.44
2022-11-06T00:04:48.170Z,93977.31
2022-11-06T00:07:50.980Z,93972.16
2022-11-06T00:10:55.312Z,93986.84
2022-11-06T00:13:59.207Z,93980.19
2022-11-06T00:17:03.157Z,93984.78
2022-11-06T00:20:07.465Z,93981.63
2022-11-06T00:23:11.795Z,93992.25
2022-11-06T00:26:17.796Z,93983.22
2022-11-06T00:29:21.810Z,93985.44
2022-11-06T00:32:25.448Z,93993.09
2022-11-06T00:35:28.801Z,93991.97
2022-11-06T00:38:32.593Z,93997.34
2022-11-06T00:41:36.681Z,93992.59
2022-11-06T00:44:40.254Z,93996.66
2022-11-06T00:47:44.202Z,93995.88
2022-11-06T00:50:47.731Z,93998.56
2022-11-06T00:53:59.688Z,94005.63
2022-11-06T00:57:03.174Z,94005.81
2022-11-06T01:00:07.785Z,94007.94
2022-11-06T01:03:11.485Z,94013.22
2022-11-06T01:06:20.130Z,94012.50
2022-11-06T01:09:27.568Z,94016.44
2022-11-06T01:12:35.549Z,94012.19
2022-11-06T01:15:39.564Z,94023.56
2022-11-06T01:18:44.943Z,94027.44
2022-11-06T01:21:50.903Z,94028.59
2022-11-06T01:24:54.120Z,94023.72
2022-11-06T01:27:58.115Z,94013.69
2022-11-06T01:31:16.108Z,94023.56
2022-11-06T01:34:19.406Z,94021.19
2022-11-06T01:37:22.697Z,94020.13
2022-11-06T01:40:26.672Z,94009.41
2022-11-06T01:43:57.532Z,94016.06
2022-11-06T01:47:08.179Z,94019.72
2022-11-06T01:50:13.478Z,94017.59
2022-11-06T01:53:16.719Z,94019.38
2022-11-06T01:56:20.576Z,94020.09
2022-11-06T01:59:27.424Z,94007.00
2022-11-06T02:02:31.154Z,94004.78
2022-11-06T02:05:35.199Z,94002.09
2022-11-06T02:08:38.033Z,94008.03
2022-11-06T02:11:51.981Z,94007.97
2022-11-06T02:15:13.993Z,94007.94
2022-11-06T02:18:23.459Z,94003.03
2022-11-06T02:21:55.259Z,94006.94
2022-11-06T02:25:13.280Z,93998.16
2022-11-06T02:28:24.645Z,94000.94
2022-11-06T02:31:32.828Z,94003.69
2022-11-06T02:34:37.696Z,94004.53
2022-11-06T02:37:45.590Z,94005.44
2022-11-06T02:41:01.476Z,94004.09
2022-11-06T02:44:08.879Z,94003.59
2022-11-06T02:47:15.566Z,94002.91
2022-11-06T02:50:24.893Z,93999.78
2022-11-06T02:53:31.361Z,94003.16
2022-11-06T02:56:40.398Z,93999.94
2022-11-06T02:59:52.973Z,93996.59
2022-11-06T03:02:59.569Z,93988.31
2022-11-06T03:06:15.672Z,93988.88
2022-11-06T03:09:28.197Z,93990.84
2022-11-06T03:12:58.053Z,93985.75
2022-11-06T03:16:13.971Z,93979.94
2022-11-06T03:19:30.121Z,93982.63
2022-11-06T03:22:59.314Z,93981.44
2022-11-06T03:26:24.180Z,93987.44
2022-11-06T03:29:40.587Z,93975.31
2022-11-06T03:32:51.816Z,93975.63
2022-11-06T03:36:11.607Z,93971.75
2022-11-06T03:39:31.036Z,93966.41
2022-11-06T03:42:34.830Z,93974.63
2022-11-06T03:45:41.805Z,93979.19
2022-11-06T03:49:01.298Z,93967.84
2022-11-06T03:52:20.917Z,93970.97
2022-11-06T03:55:30.772Z,93967.47
2022-11-06T03:58:41.938Z,93969.94
2022-11-06T04:01:47.948Z,93959.38
2022-11-06T04:04:57.792Z,93960.78
2022-11-06T04:08:40.305Z,93950.28
2022-11-06T04:12:04.636Z,93953.16
2022-11-06T04:15:13.101Z,93951.78
2022-11-06T04:18:21.248Z,93947.63
2022-11-06T04:21:27.629Z,93950.28
2022-11-06T04:25:05.506Z,93943.28
2022-11-06T04:28:37.479Z,93931.81
2022-11-06T04:32:10.902Z,93925.13
2022-11-06T04:35:26.353Z,93929.38
2022-11-06T04:38:41.951Z,93920.72
2022-11-06T04:42:24.212Z,93920.53
2022-11-06T04:45:35.409Z,93919.59
2022-11-06T04:48:40.958Z,93915.13
2022-11-06T04:51:46.896Z,93913.88
2022-11-06T04:54:51.045Z,93917.59
2022-11-06T04:57:54.404Z,93914.34
2022-11-06T05:00:58.154Z,93906.63
2022-11-06T05:04:02.215Z,93901.97
2022-11-06T05:07:05.903Z,93904.66
2022-11-06T05:10:10.761Z,93894.19
2022-11-06T05:13:15.653Z,93893.34
2022-11-06T05:16:19.746Z,93889.47
2022-11-06T05:19:23.334Z,93898.00
2022-11-06T05:22:45.266Z,93886.38
2022-11-06T05:25:48.711Z,93890.97
2022-11-06T05:28:52.543Z,93892.22
2022-11-06T05:32:04.894Z,93880.28
2022-11-06T05:35:08.375Z,93889.63
2022-11-06T05:38:12.569Z,93885.09
2022-11-06T05:41:16.245Z,93889.03
2022-11-06T05:44:20.195Z,93891.84
2022-11-06T05:47:23.841Z,93884.56
2022-11-06T05:50:28.257Z,93881.38
2022-11-06T05:53:36.447Z,93880.22
2022-11-06T05:56:40.913Z,93885.69
2022-11-06T05:59:44.563Z,93875.47
2022-11-06T06:02:48.712Z,93863.19
2022-11-06T06:05:52.759Z,93876.56
2022-11-06T06:08:56.332Z,93874.00
2022-11-06T06:11:59.944Z,93878.22
2022-11-06T06:15:03.030Z,93867.28
2022-11-06T06:18:07.300Z,93862.56
2022-11-06T06:21:10.595Z,93870.34
2022-11-06T06:24:14.186Z,93875.16
2022-11-06T06:27:17.797Z,93870.16
2022-11-06T06:30:22.767Z,93862.56
2022-11-06T06:33:25.615Z,93874.81
2022-11-06T06:36:29.279Z,93869.59
2022-11-06T06:39:32.395Z,93873.91
2022-11-06T06:42:36.484Z,93886.34
2022-11-06T06:45:39.637Z,93884.00
2022-11-06T06:48:42.822Z,93889.75
2022-11-06T06:51:46.017Z,93878.06
2022-11-06T06:54:49.177Z,93881.91
2022-11-06T06:58:00.361Z,93882.72
2022-11-06T07:01:05.346Z,93880.91
2022-11-06T07:04:11.657Z,93884.91
2022-11-06T07:07:14.628Z,93891.97
2022-11-06T07:10:18.863Z,93889.16
2022-11-06T07:13:21.687Z,93892.22
2022-11-06T07:16:26.215Z,93891.53
2022-11-06T07:19:29.830Z,93884.69
2022-11-06T07:22:37.312Z,93896.56
2022-11-06T07:25:41.367Z,93900.88
2022-11-06T07:28:44.226Z,93900.59
2022-11-06T07:31:48.129Z,93912.38
2022-11-06T07:34:51.152Z,93902.38
2022-11-06T07:37:55.070Z,93910.47
2022-11-06T07:41:02.786Z,93906.84
2022-11-06T07:44:07.128Z,93916.81
2022-11-06T07:47:10.729Z,93919.81
2022-11-06T07:50:14.314Z,93923.56
2022-11-06T07:53:18.085Z,93923.50
2022-11-06T07:56:21.984Z,93931.22
2022-11-06T07:59:25.965Z,93925.94
2022-11-06T08:02:30.021Z,93931.78
2022-11-06T08:05:33.607Z,93931.44
2022-11-06T08:08:36.663Z,93933.78
2022-11-06T08:11:39.491Z,93936.88
2022-11-06T08:14:43.425Z,93932.66
2022-11-06T08:17:46.242Z,93941.25
2022-11-06T08:20:49.741Z,93935.19
2022-11-06T08:23:52.645Z,93936.72
2022-11-06T08:26:56.308Z,93932.59
2022-11-06T08:30:00.019Z,93927.63
2022-11-06T08:33:06.251Z,93940.53
2022-11-06T08:36:10.892Z,93935.97
2022-11-06T08:39:14.815Z,93934.69
2022-11-06T08:42:17.725Z,93932.94
2022-11-06T08:45:21.041Z,93943.28
2022-11-06T08:48:24.626Z,93937.88
2022-11-06T08:51:27.821Z,93941.59
2022-11-06T08:54:31.233Z,93938.75
2022-11-06T08:57:34.582Z,93935.88
2022-11-06T09:00:37.946Z,93939.97
2022-11-06T09:03:41.914Z,93934.88
2022-11-06T09:06:45.209Z,93935.25
2022-11-06T09:09:49.280Z,93941.50
2022-11-06T09:12:52.473Z,93942.25
2022-11-06T09:15:55.424Z,93944.81
2022-11-06T09:19:00.689Z,93955.81
2022-11-06T09:22:04.836Z,93958.00
2022-11-06T09:25:10.078Z,93949.66
2022-11-06T09:28:13.958Z,93954.75
2022-11-06T09:31:17.592Z,93962.06
2022-11-06T09:34:21.667Z,93966.81
2022-11-06T09:37:25.271Z,93962.47
2022-11-06T09:40:44.685Z,93959.53
2022-11-06T09:44:25.762Z,93964.28
2022-11-06T09:47:33.517Z,93965.00
2022-11-06T09:50:49.484Z,93966.13
2022-11-06T09:54:05.279Z,93967.94
2022-11-06T09:57:56.638Z,93962.47
2022-11-06T10:01:07.732Z,93975.22
2022-11-06T10:04:37.331Z,93972.31
2022-11-06T10:07:45.244Z,93974.88
2022-11-06T10:11:23.487Z,93973.78
2022-11-06T10:14:38.778Z,93965.03
2022-11-06T10:18:16.906Z,93971.22
2022-11-06T10:21:20.955Z,93985.44
2022-11-06T10:24:31.757Z,93986.91
2022-11-06T10:27:44.060Z,93992.38
2022-11-06T10:31:16.554Z,93986.53
2022-11-06T10:34:35.513Z,93979.59
2022-11-06T10:38:02.518Z,93984.34
2022-11-06T10:41:05.856Z,93986.16
2022-11-06T10:44:24.962Z,93990.16
2022-11-06T10:47:35.212Z,93991.63
2022-11-06T10:50:53.810Z,93992.72
2022-11-06T10:54:20.222Z,94005.78
2022-11-06T10:57:46.890Z,93996.69
2022-11-06T11:00:53.749Z,94003.22
2022-11-06T11:03:58.002Z,94001.75
2022-11-06T11:07:21.379Z,94004.28
2022-11-06T11:10:27.249Z,94007.94
2022-11-06T11:13:31.003Z,94005.41
2022-11-06T11:16:39.007Z,94006.47
2022-11-06T11:19:44.536Z,94002.44
2022-11-06T11:22:47.966Z,94006.41
2022-11-06T11:25:57.101Z,94004.56
2022-11-06T11:29:12.409Z,94006.78
2022-11-06T11:32:18.115Z,94011.50
2022-11-06T11:35:29.073Z,94010.75
2022-11-06T11:42:25.324Z,94021.25
2022-11-06T11:45:28.936Z,94023.78
2022-11-06T11:49:02.890Z,94029.66
2022-11-06T11:52:13.132Z,94024.19
2022-11-06T11:55:23.345Z,94032.19
2022-11-06T11:58:29.836Z,94025.63
2022-11-06T12:01:35.987Z,94027.06
2022-11-06T12:04:44.569Z,94031.41
2022-11-06T12:07:57.228Z,94023.75
2022-11-06T12:11:05.444Z,94026.22
2022-11-06T12:14:45.770Z,94031.28
2022-11-06T12:18:12.728Z,94026.13
2022-11-06T12:21:25.210Z,94031.94
2022-11-06T12:24:44.244Z,94031.56
2022-11-06T12:28:11.612Z,94032.28
2022-11-06T12:31:30.024Z,94033.31
2022-11-06T12:34:40.339Z,94038.34
2022-11-06T12:38:20.300Z,94035.41
2022-11-06T12:41:42.643Z,94035.41
2022-11-06T12:44:48.348Z,94045.25
2022-11-06T12:48:05.379Z,94048.84
2022-11-06T12:51:28.124Z,94040.78
2022-11-06T12:55:04.163Z,94051.72
2022-11-06T12:58:41.352Z,94041.50
2022-11-06T13:02:29.475Z,94044.44
2022-11-06T13:05:47.190Z,94052.41
2022-11-06T13:09:06.130Z,94056.75
2022-11-06T13:12:19.929Z,94057.13
2022-11-06T13:15:32.198Z,94051.34
2022-11-06T13:18:53.661Z,94050.97
2022-11-06T13:22:18.218Z,94047.66
2022-11-06T13:25:58.241Z,94054.50
2022-11-06T13:29:05.431Z,94050.00
2022-11-06T13:32:19.691Z,94058.38
2022-11-06T13:35:24.203Z,94065.63
2022-11-06T13:38:35.469Z,94055.44
2022-11-06T13:41:38.321Z,94059.84
2022-11-06T13:44:41.488Z,94052.22
2022-11-06T13:48:15.743Z,94056.06
2022-11-06T13:51:26.970Z,94052.28
2022-11-06T13:54:48.724Z,94062.34
2022-11-06T13:58:13.694Z,94057.84
2022-11-06T14:01:51.206Z,94059.66
2022-11-06T14:05:32.867Z,94063.31
2022-11-06T14:08:54.590Z,94069.03
2022-11-06T14:12:04.297Z,94075.19
2022-11-06T14:15:18.119Z,94073.16
2022-11-06T14:18:24.371Z,94076.22
2022-11-06T14:21:36.848Z,94080.78
2022-11-06T14:24:43.191Z,94081.41
2022-11-06T14:27:49.588Z,94086.66
2022-11-06T14:34:36.158Z,94096.00
2022-11-06T14:37:46.131Z,94093.75
2022-11-06T14:40:49.183Z,94099.06
2022-11-06T14:44:01.028Z,94095.41
2022-11-06T14:47:07.779Z,94095.28
2022-11-06T14:50:27.899Z,94107.63
2022-11-06T14:53:39.043Z,94099.81
2022-11-06T14:56:43.289Z,94095.06
2022-11-06T14:59:49.009Z,94101.53
2022-11-06T15:02:52.313Z,94096.34
2022-11-06T15:06:19.916Z,94098.28
2022-11-06T15:09:27.276Z,94103.50
2022-11-06T15:13:11.563Z,94105.03
2022-11-06T15:16:14.986Z,94107.50
2022-11-06T15:19:35.265Z,94097.34
2022-11-06T15:22:45.202Z,94102.16
2022-11-06T15:26:00.911Z,94098.63
2022-11-06T15:29:10.610Z,94105.72
2022-11-06T15:32:24.914Z,94094.59
2022-11-06T15:35:34.132Z,94095.41
2022-11-06T15:38:42.221Z,94102.56
2022-11-06T15:41:45.646Z,94098.16
2022-11-06T15:44:50.070Z,94097.81
2022-11-06T15:48:06.271Z,94090.25
2022-11-06T15:51:27.011Z,94090.31
2022-11-06T15:54:36.643Z,94087.38
2022-11-06T15:57:40.269Z,94088.41
2022-11-06T16:00:44.190Z,94093.41
2022-11-06T16:03:53.855Z,94087.59
2022-11-06T16:06:58.343Z,94089.06
2022-11-06T16:10:02.292Z,94094.81
2022-11-06T16:13:06.775Z,94073.06
2022-11-06T16:16:32.502Z,94086.19
2022-11-06T16:19:39.777Z,94077.38
2022-11-06T16:22:42.925Z,94082.25
2022-11-06T16:25:46.921Z,94071.25
2022-11-06T16:28:51.723Z,94074.94
2022-11-06T16:32:26.177Z,94071.00
2022-11-06T16:35:37.402Z,94072.25
2022-11-06T16:38:44.920Z,94075.47
2022-11-06T16:42:01.173Z,94078.28
2022-11-06T16:45:21.191Z,94070.28
2022-11-06T16:48:27.252Z,94063.81
2022-11-06T16:51:34.777Z,94064.88
2022-11-06T16:54:38.603Z,94055.72
2022-11-06T16:57:59.186Z,94052.94
2022-11-06T17:01:07.302Z,94052.94
2022-11-06T17:04:22.335Z,94051.06
2022-11-06T17:07:26.023Z,94046.34
2022-11-06T17:10:35.620Z,94042.31
2022-11-06T17:13:41.111Z,94039.25
2022-11-06T17:16:57.169Z,94037.38
2022-11-06T17:20:00.074Z,94043.72
2022-11-06T17:23:03.538Z,94046.41
2022-11-06T17:26:13.045Z,94049.34
2022-11-06T17:29:21.847Z,94039.88
2022-11-06T17:32:25.845Z,94037.28
2022-11-06T17:35:29.635Z,94036.16
2022-11-06T17:38:33.294Z,94031.16
2022-11-06T17:41:37.253Z,94035.63
2022-11-06T17:44:40.091Z,94027.75
2022-11-06T17:47:44.279Z,94018.66
2022-11-06T17:51:06.127Z,94017.94
2022-11-06T17:54:11.106Z,94026.28
2022-11-06T17:57:19.746Z,94021.94
2022-11-06T18:00:26.725Z,94005.88
2022-11-06T18:03:36.192Z,94000.53
2022-11-06T18:06:39.909Z,93993.66
2022-11-06T18:09:42.863Z,93992.94
2022-11-06T18:12:46.387Z,93997.03
2022-11-06T18:15:49.960Z,93988.09
2022-11-06T18:18:54.437Z,93991.84
2022-11-06T18:22:02.406Z,93984.84
2022-11-06T18:25:10.059Z,93981.91
2022-11-06T18:28:12.947Z,93981.38
2022-11-06T18:31:16.899Z,93980.41
2022-11-06T18:34:21.523Z,93970.34
2022-11-06T18:37:26.756Z,93961.72
2022-11-06T18:40:30.009Z,93959.44
2022-11-06T18:43:34.016Z,93950.88
2022-11-06T18:46:37.624Z,93962.78
2022-11-06T18:49:41.503Z,93960.13
2022-11-06T18:52:57.346Z,93965.50
2022-11-06T18:56:01.137Z,93958.50
2022-11-06T18:59:09.393Z,93958.84
2022-11-06T19:02:13.540Z,93950.91
2022-11-06T19:05:17.492Z,93956.47
2022-11-06T19:08:21.382Z,93958.59
2022-11-06T19:11:24.301Z,93949.03
2022-11-06T19:14:28.169Z,93962.56
2022-11-06T19:17:32.034Z,93961.69
2022-11-06T19:20:35.558Z,93955.13
2022-11-06T19:23:42.653Z,93954.34
2022-11-06T19:26:48.194Z,93950.00
2022-11-06T19:29:51.876Z,93950.75
2022-11-06T19:32:55.502Z,93945.63
2022-11-06T19:36:01.821Z,93950.59
2022-11-06T19:39:05.467Z,93952.38
2022-11-06T19:42:08.280Z,93947.41
2022-11-06T19:45:11.868Z,93947.25
2022-11-06T19:48:15.307Z,93940.94
2022-11-06T19:51:19.479Z,93947.06
2022-11-06T19:54:23.228Z,93942.53
2022-11-06T19:57:30.265Z,93932.91
2022-11-06T20:00:34.158Z,93941.00
2022-11-06T20:03:38.370Z,93935.69
2022-11-06T20:06:41.755Z,93930.81
2022-11-06T20:09:45.237Z,93934.28
2022-11-06T20:12:48.927Z,93925.66
2022-11-06T20:15:52.509Z,93939.25
2022-11-06T20:19:00.359Z,93931.06
2022-11-06T20:22:04.006Z,93934.72
2022-11-06T20:25:08.509Z,93940.53
2022-11-06T20:28:12.117Z,93947.78
2022-11-06T20:31:19.433Z,93936.56
2022-11-06T20:34:22.411Z,93936.56
2022-11-06T20:37:26.760Z,93936.50
2022-11-06T20:40:33.607Z,93926.78
2022-11-06T20:43:37.611Z,93930.78
2022-11-06T20:46:41.340Z,93920.63
2022-11-06T20:49:44.958Z,93922.44
2022-11-06T20:52:48.962Z,93924.25
2022-11-06T20:56:05.222Z,93930.53
2022-11-06T20:59:08.519Z,93935.53
2022-11-06T21:02:12.607Z,93929.63
2022-11-06T21:05:16.653Z,93922.03
2022-11-06T21:08:20.653Z,93920.72
2022-11-06T21:11:26.559Z,93922.06
2022-11-06T21:14:30.853Z,93922.13
2022-11-06T21:17:35.644Z,93925.44
2022-11-06T21:20:39.717Z,93918.59
2022-11-06T21:23:43.998Z,93918.31
2022-11-06T21:26:48.153Z,93917.19
2022-11-06T21:29:51.798Z,93915.72
2022-11-06T21:32:55.840Z,93912.06
2022-11-06T21:36:13.737Z,93912.84
2022-11-06T21:39:20.286Z,93917.31
2022-11-06T21:42:23.155Z,93911.66
2022-11-06T21:45:27.738Z,93901.66
2022-11-06T21:48:45.931Z,93905.78
2022-11-06T21:51:51.080Z,93904.72
2022-11-06T21:55:12.316Z,93903.59
2022-11-06T21:58:15.644Z,93901.97
2022-11-06T22:01:19.723Z,93896.13
2022-11-06T22:04:24.152Z,93897.63
2022-11-06T22:07:27.829Z,93893.59
2022-11-06T22:10:31.542Z,93889.59
2022-11-06T22:13:35.341Z,93891.44
2022-11-06T22:16:40.841Z,93883.16
2022-11-06T22:19:43.826Z,93892.31
2022-11-06T22:22:47.503Z,93886.66
2022-11-06T22:25:50.404Z,93880.63
2022-11-06T22:28:56.059Z,93882.75
2022-11-06T22:31:59.665Z,93889.28
2022-11-06T22:35:03.017Z,93884.69
2022-11-06T22:38:06.000Z,93883.38
2022-11-06T22:41:14.221Z,93879.22
2022-11-06T22:44:17.989Z,93869.78
2022-11-06T22:47:21.937Z,93867.44
2022-11-06T22:50:25.780Z,93888.31
2022-11-06T22:53:29.995Z,93884.13
2022-11-06T22:56:33.720Z,93887.84
2022-11-06T22:59:36.955Z,93891.38
2022-11-06T23:02:39.986Z,93882.59
2022-11-06T23:05:43.349Z,93878.41
2022-11-06T23:08:47.280Z,93878.25
2022-11-06T23:11:51.327Z,93878.06
2022-11-06T23:14:54.965Z,93878.03
2022-11-06T23:17:59.746Z,93885.53
2022-11-06T23:21:03.540Z,93880.94
2022-11-06T23:24:08.428Z,93885.72
2022-11-06T23:27:12.947Z,93878.72
2022-11-06T23:30:16.917Z,93880.19
2022-11-06T23:33:21.229Z,93876.28
2022-11-06T23:36:24.967Z,93878.06
2022-11-06T23:39:27.852Z,93870.00
2022-11-06T23:42:31.285Z,93872.25
2022-11-06T23:45:50.534Z,93875.94
2022-11-06T23:48:53.843Z,93869.78
2022-11-06T23:51:56.823Z,93869.66
2022-11-06T23:54:59.904Z,93874.91
2022-11-06T23:58:02.783Z,93866.53
